sensor_id;sensor_type;location;lat;lon;timestamp;pressure;altitude;pressure_sealevel;temperature;humidity
78309;BME280;67566;42.022;21.356;2023-11-18T00:00:32;98133.81;;;7.86;83.01
78309;BME280;67566;42.022;21.356;2023-11-18T00:02:58;98136.66;;;7.89;83.07
78309;BME280;67566;42.022;21.356;2023-11-18T00:05:23;98159.75;;;7.89;82.66
78309;BME280;67566;42.022;21.356;2023-11-18T00:07:49;98165.06;;;7.89;83.01
78309;BME280;67566;42.022;21.356;2023-11-18T00:10:15;98163.19;;;7.89;82.19
78309;BME280;67566;42.022;21.356;2023-11-18T00:12:41;98169.19;;;7.95;82.02
78309;BME280;67566;42.022;21.356;2023-11-18T00:15:12;98167.81;;;7.98;82.47
78309;BME280;67566;42.022;21.356;2023-11-18T00:17:40;98172.41;;;7.92;79.93
78309;BME280;67566;42.022;21.356;2023-11-18T00:20:09;98177.44;;;7.93;79.62
78309;BME280;67566;42.022;21.356;2023-11-18T00:22:40;98170.34;;;7.89;79.08
78309;BME280;67566;42.022;21.356;2023-11-18T00:25:06;98159.47;;;7.90;80.09
78309;BME280;67566;42.022;21.356;2023-11-18T00:27:36;98174.59;;;7.90;77.82
78309;BME280;67566;42.022;21.356;2023-11-18T00:30:05;98162.88;;;7.91;77.78
78309;BME280;67566;42.022;21.356;2023-11-18T00:32:33;98166.91;;;7.88;77.64
78309;BME280;67566;42.022;21.356;2023-11-18T00:34:58;98162.41;;;7.89;76.94
78309;BME280;67566;42.022;21.356;2023-11-18T00:37:24;98170.84;;;7.91;77.20
78309;BME280;67566;42.022;21.356;2023-11-18T00:39:49;98172.50;;;7.87;76.42
78309;BME280;67566;42.022;21.356;2023-11-18T00:42:15;98182.34;;;7.86;75.69
78309;BME280;67566;42.022;21.356;2023-11-18T00:44:41;98180.47;;;7.87;75.91
78309;BME280;67566;42.022;21.356;2023-11-18T00:47:07;98175.75;;;7.84;75.14
78309;BME280;67566;42.022;21.356;2023-11-18T00:49:33;98176.03;;;7.82;76.07
78309;BME280;67566;42.022;21.356;2023-11-18T00:51:59;98195.97;;;7.80;74.84
78309;BME280;67566;42.022;21.356;2023-11-18T00:54:24;98203.44;;;7.78;75.44
78309;BME280;67566;42.022;21.356;2023-11-18T00:56:50;98194.47;;;7.73;74.91
78309;BME280;67566;42.022;21.356;2023-11-18T00:59:16;98191.63;;;7.70;74.09
78309;BME280;67566;42.022;21.356;2023-11-18T01:01:41;98196.34;;;7.73;74.90
78309;BME280;67566;42.022;21.356;2023-11-18T01:04:07;98188.69;;;7.71;74.67
78309;BME280;67566;42.022;21.356;2023-11-18T01:06:32;98184.44;;;7.70;74.11
78309;BME280;67566;42.022;21.356;2023-11-18T01:08:58;98199.06;;;7.68;72.53
78309;BME280;67566;42.022;21.356;2023-11-18T01:11:24;98198.38;;;7.62;71.40
78309;BME280;67566;42.022;21.356;2023-11-18T01:13:49;98196.50;;;7.63;70.02
78309;BME280;67566;42.022;21.356;2023-11-18T01:16:15;98194.22;;;7.56;70.94
78309;BME280;67566;42.022;21.356;2023-11-18T01:18:42;98198.75;;;7.55;70.46
78309;BME280;67566;42.022;21.356;2023-11-18T01:21:08;98198.47;;;7.57;69.17
78309;BME280;67566;42.022;21.356;2023-11-18T01:23:37;98204.03;;;7.55;69.52
78309;BME280;67566;42.022;21.356;2023-11-18T01:26:05;98192.16;;;7.53;69.95
78309;BME280;67566;42.022;21.356;2023-11-18T01:28:32;98209.22;;;7.47;68.99
78309;BME280;67566;42.022;21.356;2023-11-18T01:31:03;98203.63;;;7.48;70.03
78309;BME280;67566;42.022;21.356;2023-11-18T01:33:29;98206.00;;;7.50;68.75
78309;BME280;67566;42.022;21.356;2023-11-18T01:35:55;98202.53;;;7.49;68.82
78309;BME280;67566;42.022;21.356;2023-11-18T01:38:20;98224.53;;;7.50;69.86
78309;BME280;67566;42.022;21.356;2023-11-18T01:40:46;98213.94;;;7.50;69.42
78309;BME280;67566;42.022;21.356;2023-11-18T01:43:11;98210.63;;;7.39;69.53
78309;BME280;67566;42.022;21.356;2023-11-18T01:45:42;98209.28;;;7.42;69.51
78309;BME280;67566;42.022;21.356;2023-11-18T01:48:08;98223.19;;;7.33;68.88
78309;BME280;67566;42.022;21.356;2023-11-18T01:50:36;98213.97;;;7.31;67.10
78309;BME280;67566;42.022;21.356;2023-11-18T01:53:04;98213.16;;;7.30;68.47
78309;BME280;67566;42.022;21.356;2023-11-18T01:55:30;98237.00;;;7.30;67.25
78309;BME280;67566;42.022;21.356;2023-11-18T01:57:55;98221.34;;;7.34;66.27
78309;BME280;67566;42.022;21.356;2023-11-18T02:00:22;98220.59;;;7.28;66.63
78309;BME280;67566;42.022;21.356;2023-11-18T02:02:48;98222.75;;;7.26;66.04
78309;BME280;67566;42.022;21.356;2023-11-18T02:05:15;98220.59;;;7.28;66.00
78309;BME280;67566;42.022;21.356;2023-11-18T02:07:41;98222.34;;;7.19;66.30
78309;BME280;67566;42.022;21.356;2023-11-18T02:10:08;98217.03;;;7.19;66.58
78309;BME280;67566;42.022;21.356;2023-11-18T02:13:06;98226.84;;;7.18;67.23
78309;BME280;67566;42.022;21.356;2023-11-18T02:15:38;98236.44;;;7.14;65.50
78309;BME280;67566;42.022;21.356;2023-11-18T02:18:06;98241.00;;;7.09;65.32
78309;BME280;67566;42.022;21.356;2023-11-18T02:20:37;98251.31;;;7.10;66.02
78309;BME280;67566;42.022;21.356;2023-11-18T02:23:04;98250.03;;;7.08;64.82
78309;BME280;67566;42.022;21.356;2023-11-18T02:25:33;98255.84;;;7.10;63.83
78309;BME280;67566;42.022;21.356;2023-11-18T02:27:59;98254.81;;;7.06;64.03
78309;BME280;67566;42.022;21.356;2023-11-18T02:30:25;98260.38;;;7.04;64.54
78309;BME280;67566;42.022;21.356;2023-11-18T02:33:17;98260.69;;;7.03;63.84
78309;BME280;67566;42.022;21.356;2023-11-18T02:35:55;98259.94;;;6.97;62.55
78309;BME280;67566;42.022;21.356;2023-11-18T02:38:29;98280.97;;;6.88;61.53
78309;BME280;67566;42.022;21.356;2023-11-18T02:40:58;98277.81;;;6.86;61.08
78309;BME280;67566;42.022;21.356;2023-11-18T02:43:26;98278.91;;;6.85;61.21
78309;BME280;67566;42.022;21.356;2023-11-18T02:45:54;98287.13;;;6.84;62.76
78309;BME280;67566;42.022;21.356;2023-11-18T02:48:22;98293.19;;;6.84;62.16
78309;BME280;67566;42.022;21.356;2023-11-18T02:50:49;98289.50;;;6.85;63.23
78309;BME280;67566;42.022;21.356;2023-11-18T02:53:14;98293.47;;;6.83;62.60
78309;BME280;67566;42.022;21.356;2023-11-18T02:55:40;98297.72;;;6.84;63.58
78309;BME280;67566;42.022;21.356;2023-11-18T02:58:06;98304.84;;;6.83;61.76
78309;BME280;67566;42.022;21.356;2023-11-18T03:00:33;98301.63;;;6.86;62.26
78309;BME280;67566;42.022;21.356;2023-11-18T03:02:58;98305.16;;;6.82;63.14
78309;BME280;67566;42.022;21.356;2023-11-18T03:05:24;98314.94;;;6.81;62.18
78309;BME280;67566;42.022;21.356;2023-11-18T03:07:51;98310.44;;;6.82;63.20
78309;BME280;67566;42.022;21.356;2023-11-18T03:10:21;98323.69;;;6.82;64.37
78309;BME280;67566;42.022;21.356;2023-11-18T03:12:48;98323.78;;;6.71;62.82
78309;BME280;67566;42.022;21.356;2023-11-18T03:15:14;98330.41;;;6.69;61.32
78309;BME280;67566;42.022;21.356;2023-11-18T03:17:44;98321.41;;;6.70;62.29
78309;BME280;67566;42.022;21.356;2023-11-18T03:20:11;98327.22;;;6.72;62.85
78309;BME280;67566;42.022;21.356;2023-11-18T03:22:39;98329.06;;;6.71;62.56
78309;BME280;67566;42.022;21.356;2023-11-18T03:25:05;98338.06;;;6.70;62.95
78309;BME280;67566;42.022;21.356;2023-11-18T03:27:33;98335.25;;;6.61;63.00
78309;BME280;67566;42.022;21.356;2023-11-18T03:29:58;98340.31;;;6.58;61.20
78309;BME280;67566;42.022;21.356;2023-11-18T03:32:24;98336.94;;;6.52;60.62
78309;BME280;67566;42.022;21.356;2023-11-18T03:34:49;98338.19;;;6.60;60.71
78309;BME280;67566;42.022;21.356;2023-11-18T03:37:15;98344.00;;;6.57;61.51
78309;BME280;67566;42.022;21.356;2023-11-18T03:39:40;98341.16;;;6.53;61.10
78309;BME280;67566;42.022;21.356;2023-11-18T03:42:06;98345.44;;;6.49;61.79
78309;BME280;67566;42.022;21.356;2023-11-18T03:44:31;98356.00;;;6.49;62.80
78309;BME280;67566;42.022;21.356;2023-11-18T03:46:57;98359.69;;;6.48;62.34
78309;BME280;67566;42.022;21.356;2023-11-18T03:49:23;98351.25;;;6.46;61.70
78309;BME280;67566;42.022;21.356;2023-11-18T03:51:48;98353.41;;;6.44;60.19
78309;BME280;67566;42.022;21.356;2023-11-18T03:54:14;98348.16;;;6.39;60.50
78309;BME280;67566;42.022;21.356;2023-11-18T03:56:40;98354.22;;;6.39;61.63
78309;BME280;67566;42.022;21.356;2023-11-18T03:59:05;98356.66;;;6.36;61.80
78309;BME280;67566;42.022;21.356;2023-11-18T04:01:31;98343.72;;;6.34;62.80
78309;BME280;67566;42.022;21.356;2023-11-18T04:03:57;98345.88;;;6.27;61.49
78309;BME280;67566;42.022;21.356;2023-11-18T04:06:23;98353.81;;;6.27;61.12
78309;BME280;67566;42.022;21.356;2023-11-18T04:08:50;98346.69;;;6.28;60.34
78309;BME280;67566;42.022;21.356;2023-11-18T04:11:16;98362.28;;;6.29;59.28
78309;BME280;67566;42.022;21.356;2023-11-18T04:13:42;98362.50;;;6.33;59.26
78309;BME280;67566;42.022;21.356;2023-11-18T04:16:14;98347.16;;;6.35;58.37
78309;BME280;67566;42.022;21.356;2023-11-18T04:18:41;98356.66;;;6.36;57.49
78309;BME280;67566;42.022;21.356;2023-11-18T04:21:08;98367.84;;;6.28;57.93
78309;BME280;67566;42.022;21.356;2023-11-18T04:23:38;98357.50;;;6.31;59.01
78309;BME280;67566;42.022;21.356;2023-11-18T04:26:04;98369.91;;;6.31;59.51
78309;BME280;67566;42.022;21.356;2023-11-18T04:28:30;98367.03;;;6.27;59.71
78309;BME280;67566;42.022;21.356;2023-11-18T04:30:56;98362.81;;;6.26;59.79
78309;BME280;67566;42.022;21.356;2023-11-18T04:33:21;98363.09;;;6.24;60.93
78309;BME280;67566;42.022;21.356;2023-11-18T04:35:47;98362.88;;;6.21;60.24
78309;BME280;67566;42.022;21.356;2023-11-18T04:38:12;98358.91;;;6.18;61.00
78309;BME280;67566;42.022;21.356;2023-11-18T04:40:38;98363.69;;;6.16;60.74
78309;BME280;67566;42.022;21.356;2023-11-18T04:43:06;98375.34;;;6.15;62.07
78309;BME280;67566;42.022;21.356;2023-11-18T04:45:32;98373.53;;;6.11;62.08
78309;BME280;67566;42.022;21.356;2023-11-18T04:47:57;98400.28;;;5.99;60.73
78309;BME280;67566;42.022;21.356;2023-11-18T04:50:24;98376.00;;;5.97;57.99
78309;BME280;67566;42.022;21.356;2023-11-18T04:52:50;98387.06;;;5.99;58.85
78309;BME280;67566;42.022;21.356;2023-11-18T04:55:16;98386.81;;;6.00;60.50
78309;BME280;67566;42.022;21.356;2023-11-18T04:57:41;98385.19;;;6.04;59.07
78309;BME280;67566;42.022;21.356;2023-11-18T05:00:07;98386.53;;;6.02;58.94
78309;BME280;67566;42.022;21.356;2023-11-18T05:02:39;98387.81;;;6.04;58.92
78309;BME280;67566;42.022;21.356;2023-11-18T05:05:06;98398.16;;;6.01;58.05
78309;BME280;67566;42.022;21.356;2023-11-18T05:07:32;98396.88;;;5.98;58.77
78309;BME280;67566;42.022;21.356;2023-11-18T05:09:58;98393.16;;;5.94;60.22
78309;BME280;67566;42.022;21.356;2023-11-18T05:12:23;98392.94;;;5.91;61.89
78309;BME280;67566;42.022;21.356;2023-11-18T05:14:49;98398.00;;;5.82;60.65
78309;BME280;67566;42.022;21.356;2023-11-18T05:17:15;98404.31;;;5.86;58.76
78309;BME280;67566;42.022;21.356;2023-11-18T05:19:41;98403.53;;;5.85;58.01
78309;BME280;67566;42.022;21.356;2023-11-18T05:22:09;98419.09;;;5.87;59.10
78309;BME280;67566;42.022;21.356;2023-11-18T05:24:34;98428.66;;;5.78;59.47
78309;BME280;67566;42.022;21.356;2023-11-18T05:27:00;98417.31;;;5.77;57.92
78309;BME280;67566;42.022;21.356;2023-11-18T05:29:30;98422.38;;;5.68;58.27
78309;BME280;67566;42.022;21.356;2023-11-18T05:31:56;98430.06;;;5.60;58.77
78309;BME280;67566;42.022;21.356;2023-11-18T05:34:22;98432.19;;;5.63;58.22
78309;BME280;67566;42.022;21.356;2023-11-18T05:36:48;98425.03;;;5.68;56.49
78309;BME280;67566;42.022;21.356;2023-11-18T05:39:14;98417.31;;;5.77;57.60
78309;BME280;67566;42.022;21.356;2023-11-18T05:41:40;98405.66;;;5.78;58.14
78309;BME280;67566;42.022;21.356;2023-11-18T05:44:10;98394.31;;;5.78;59.05
78309;BME280;67566;42.022;21.356;2023-11-18T05:46:42;98394.59;;;5.76;58.90
78309;BME280;67566;42.022;21.356;2023-11-18T05:49:11;98386.41;;;5.73;58.26
78309;BME280;67566;42.022;21.356;2023-11-18T05:51:39;98393.28;;;5.74;58.61
78309;BME280;67566;42.022;21.356;2023-11-18T05:54:06;98408.09;;;5.70;58.05
78309;BME280;67566;42.022;21.356;2023-11-18T05:56:32;98409.69;;;5.71;58.91
78309;BME280;67566;42.022;21.356;2023-11-18T05:58:58;98403.66;;;5.65;58.72
78309;BME280;67566;42.022;21.356;2023-11-18T06:01:24;98414.44;;;5.68;58.77
78309;BME280;67566;42.022;21.356;2023-11-18T06:03:52;98415.75;;;5.71;59.39
78309;BME280;67566;42.022;21.356;2023-11-18T06:06:18;98421.03;;;5.71;59.51
78309;BME280;67566;42.022;21.356;2023-11-18T06:08:44;98412.56;;;5.74;59.45
78309;BME280;67566;42.022;21.356;2023-11-18T06:11:10;98406.19;;;5.80;59.57
78309;BME280;67566;42.022;21.356;2023-11-18T06:13:44;98414.63;;;5.82;58.38
78309;BME280;67566;42.022;21.356;2023-11-18T06:16:19;98425.44;;;5.86;59.03
78309;BME280;67566;42.022;21.356;2023-11-18T06:18:49;98424.91;;;5.89;58.90
78309;BME280;67566;42.022;21.356;2023-11-18T06:21:17;98439.69;;;5.90;58.03
78309;BME280;67566;42.022;21.356;2023-11-18T06:23:44;98438.38;;;5.93;58.37
78309;BME280;67566;42.022;21.356;2023-11-18T06:26:11;98450.00;;;5.92;58.21
78309;BME280;67566;42.022;21.356;2023-11-18T06:28:41;98464.53;;;5.99;58.83
78309;BME280;67566;42.022;21.356;2023-11-18T06:31:07;98474.78;;;6.01;59.13
78309;BME280;67566;42.022;21.356;2023-11-18T06:33:41;98476.88;;;6.09;59.63
78309;BME280;67566;42.022;21.356;2023-11-18T06:36:17;98482.66;;;6.11;59.82
78309;BME280;67566;42.022;21.356;2023-11-18T06:38:44;98478.69;;;6.14;59.81
78309;BME280;67566;42.022;21.356;2023-11-18T06:41:10;98490.31;;;6.18;59.38
78309;BME280;67566;42.022;21.356;2023-11-18T06:43:37;98490.53;;;6.21;59.67
78309;BME280;67566;42.022;21.356;2023-11-18T06:46:26;98503.72;;;6.27;60.21
78309;BME280;67566;42.022;21.356;2023-11-18T06:48:54;98501.06;;;6.32;58.57
78309;BME280;67566;42.022;21.356;2023-11-18T06:51:24;98510.59;;;6.33;57.11
78309;BME280;67566;42.022;21.356;2023-11-18T06:53:53;98515.28;;;6.36;57.57
78309;BME280;67566;42.022;21.356;2023-11-18T06:56:23;98506.81;;;6.39;56.51
78309;BME280;67566;42.022;21.356;2023-11-18T06:58:48;98516.06;;;6.41;57.09
78309;BME280;67566;42.022;21.356;2023-11-18T07:01:14;98511.25;;;6.49;57.84
78309;BME280;67566;42.022;21.356;2023-11-18T07:03:41;98506.25;;;6.47;58.43
78309;BME280;67566;42.022;21.356;2023-11-18T07:06:07;98511.00;;;6.50;57.33
78309;BME280;67566;42.022;21.356;2023-11-18T07:08:35;98509.88;;;6.56;58.11
78309;BME280;67566;42.022;21.356;2023-11-18T07:11:01;98521.78;;;6.59;57.82
78309;BME280;67566;42.022;21.356;2023-11-18T07:13:27;98508.78;;;6.63;55.13
78309;BME280;67566;42.022;21.356;2023-11-18T07:15:53;98519.59;;;6.66;55.53
78309;BME280;67566;42.022;21.356;2023-11-18T07:18:23;98517.75;;;6.67;54.77
78309;BME280;67566;42.022;21.356;2023-11-18T07:20:49;98522.50;;;6.70;55.33
78309;BME280;67566;42.022;21.356;2023-11-18T07:23:17;98527.78;;;6.70;54.60
78309;BME280;67566;42.022;21.356;2023-11-18T07:25:43;98516.13;;;6.71;52.56
78309;BME280;67566;42.022;21.356;2023-11-18T07:28:13;98524.06;;;6.71;53.49
78309;BME280;67566;42.022;21.356;2023-11-18T07:30:45;98524.00;;;6.76;52.99
78309;BME280;67566;42.022;21.356;2023-11-18T07:33:16;98534.31;;;6.77;52.09
78309;BME280;67566;42.022;21.356;2023-11-18T07:35:43;98542.56;;;6.71;52.73
78309;BME280;67566;42.022;21.356;2023-11-18T07:38:08;98531.72;;;6.72;51.84
78309;BME280;67566;42.022;21.356;2023-11-18T07:40:36;98521.41;;;6.71;51.57
78309;BME280;67566;42.022;21.356;2023-11-18T07:43:03;98543.69;;;6.65;50.37
78309;BME280;67566;42.022;21.356;2023-11-18T07:45:34;98543.72;;;6.59;50.26
78309;BME280;67566;42.022;21.356;2023-11-18T07:48:04;98542.06;;;6.69;50.89
78309;BME280;67566;42.022;21.356;2023-11-18T07:50:35;98539.69;;;6.67;50.48
78309;BME280;67566;42.022;21.356;2023-11-18T07:53:01;98566.97;;;6.68;49.50
78309;BME280;67566;42.022;21.356;2023-11-18T07:55:27;98537.84;;;6.68;49.12
78309;BME280;67566;42.022;21.356;2023-11-18T07:57:53;98540.03;;;6.60;49.56
78309;BME280;67566;42.022;21.356;2023-11-18T08:00:19;98516.25;;;6.55;50.50
78309;BME280;67566;42.022;21.356;2023-11-18T08:02:45;98519.22;;;6.43;51.15
78309;BME280;67566;42.022;21.356;2023-11-18T08:05:10;98517.22;;;6.65;50.49
78309;BME280;67566;42.022;21.356;2023-11-18T08:07:40;98526.50;;;6.62;49.44
78309;BME280;67566;42.022;21.356;2023-11-18T08:10:06;98518.88;;;6.60;49.52
78309;BME280;67566;42.022;21.356;2023-11-18T08:12:32;98506.88;;;6.68;49.77
78309;BME280;67566;42.022;21.356;2023-11-18T08:14:58;98516.34;;;6.74;50.50
78309;BME280;67566;42.022;21.356;2023-11-18T08:17:25;98520.06;;;6.73;49.59
78309;BME280;67566;42.022;21.356;2023-11-18T08:19:51;98527.47;;;6.76;49.77
78309;BME280;67566;42.022;21.356;2023-11-18T08:22:18;98528.72;;;6.84;50.13
78309;BME280;67566;42.022;21.356;2023-11-18T08:24:47;98552.78;;;6.88;48.45
78309;BME280;67566;42.022;21.356;2023-11-18T08:27:14;98548.00;;;6.90;48.68
78309;BME280;67566;42.022;21.356;2023-11-18T08:29:39;98523.94;;;6.86;47.58
78309;BME280;67566;42.022;21.356;2023-11-18T08:32:05;98517.81;;;6.91;49.38
78309;BME280;67566;42.022;21.356;2023-11-18T08:34:35;98528.22;;;6.82;48.57
78309;BME280;67566;42.022;21.356;2023-11-18T08:37:01;98524.69;;;6.92;47.02
78309;BME280;67566;42.022;21.356;2023-11-18T08:39:28;98523.34;;;6.94;48.82
78309;BME280;67566;42.022;21.356;2023-11-18T08:41:54;98516.50;;;6.88;47.92
78309;BME280;67566;42.022;21.356;2023-11-18T08:44:19;98522.91;;;6.82;47.83
78309;BME280;67566;42.022;21.356;2023-11-18T08:46:45;98502.25;;;6.84;48.61
78309;BME280;67566;42.022;21.356;2023-11-18T08:49:12;98531.09;;;6.86;48.18
78309;BME280;67566;42.022;21.356;2023-11-18T08:51:37;98538.47;;;6.89;48.95
78309;BME280;67566;42.022;21.356;2023-11-18T08:54:04;98522.34;;;6.90;48.48
78309;BME280;67566;42.022;21.356;2023-11-18T08:56:53;98527.31;;;6.92;48.41
78309;BME280;67566;42.022;21.356;2023-11-18T08:59:23;98523.63;;;6.93;47.38
78309;BME280;67566;42.022;21.356;2023-11-18T09:01:53;98527.28;;;6.97;47.05
78309;BME280;67566;42.022;21.356;2023-11-18T09:04:25;98535.63;;;7.09;47.56
78309;BME280;67566;42.022;21.356;2023-11-18T09:06:54;98541.78;;;7.34;45.96
78309;BME280;67566;42.022;21.356;2023-11-18T09:09:20;98538.78;;;7.41;45.75
78309;BME280;67566;42.022;21.356;2023-11-18T09:11:55;98531.78;;;7.55;45.78
78309;BME280;67566;42.022;21.356;2023-11-18T09:14:22;98537.91;;;7.50;44.77
78309;BME280;67566;42.022;21.356;2023-11-18T09:16:50;98547.50;;;7.46;46.01
78309;BME280;67566;42.022;21.356;2023-11-18T09:19:18;98562.69;;;7.35;45.63
78309;BME280;67566;42.022;21.356;2023-11-18T09:21:46;98585.50;;;7.31;45.17
78309;BME280;67566;42.022;21.356;2023-11-18T09:24:12;98582.13;;;7.26;44.97
78309;BME280;67566;42.022;21.356;2023-11-18T09:26:39;98584.94;;;7.34;45.47
78309;BME280;67566;42.022;21.356;2023-11-18T09:29:05;98582.91;;;7.26;45.52
78309;BME280;67566;42.022;21.356;2023-11-18T09:31:36;98624.53;;;7.21;45.94
78309;BME280;67566;42.022;21.356;2023-11-18T09:34:03;98616.38;;;7.12;44.16
78309;BME280;67566;42.022;21.356;2023-11-18T09:36:32;98587.34;;;7.02;44.16
78309;BME280;67566;42.022;21.356;2023-11-18T09:38:59;98583.94;;;6.96;44.34
78309;BME280;67566;42.022;21.356;2023-11-18T09:41:25;98592.94;;;6.95;45.66
78309;BME280;67566;42.022;21.356;2023-11-18T09:43:52;98585.94;;;7.09;46.70
78309;BME280;67566;42.022;21.356;2023-11-18T09:49:01;98589.03;;;7.51;45.37
78309;BME280;67566;42.022;21.356;2023-11-18T09:51:41;98581.75;;;7.62;43.88
78309;BME280;67566;42.022;21.356;2023-11-18T09:54:33;98579.41;;;7.84;44.31
78309;BME280;67566;42.022;21.356;2023-11-18T10:00:04;98581.81;;;8.05;43.34
78309;BME280;67566;42.022;21.356;2023-11-18T10:02:48;98578.28;;;8.34;43.06
78309;BME280;67566;42.022;21.356;2023-11-18T10:05:16;98578.06;;;8.30;41.24
78309;BME280;67566;42.022;21.356;2023-11-18T10:07:45;98596.44;;;8.45;42.10
78309;BME280;67566;42.022;21.356;2023-11-18T10:10:13;98599.13;;;8.40;41.74
78309;BME280;67566;42.022;21.356;2023-11-18T10:12:45;98619.25;;;8.46;41.93
78309;BME280;67566;42.022;21.356;2023-11-18T10:15:13;98602.56;;;8.46;40.98
78309;BME280;67566;42.022;21.356;2023-11-18T10:17:43;98584.69;;;8.52;41.13
78309;BME280;67566;42.022;21.356;2023-11-18T10:23:07;98571.22;;;8.05;42.64
78309;BME280;67566;42.022;21.356;2023-11-18T10:25:45;98539.91;;;7.83;43.49
78309;BME280;67566;42.022;21.356;2023-11-18T10:30:47;98535.94;;;7.61;43.90
78309;BME280;67566;42.022;21.356;2023-11-18T10:33:14;98538.63;;;7.56;44.61
78309;BME280;67566;42.022;21.356;2023-11-18T10:35:51;98549.78;;;7.53;45.09
78309;BME280;67566;42.022;21.356;2023-11-18T10:38:18;98541.38;;;7.46;45.00
78309;BME280;67566;42.022;21.356;2023-11-18T10:40:44;98550.66;;;7.48;44.79
78309;BME280;67566;42.022;21.356;2023-11-18T10:43:10;98533.78;;;7.39;45.82
78309;BME280;67566;42.022;21.356;2023-11-18T10:45:36;98530.13;;;7.35;46.29
78309;BME280;67566;42.022;21.356;2023-11-18T10:48:06;98541.97;;;7.43;45.51
78309;BME280;67566;42.022;21.356;2023-11-18T10:50:32;98544.38;;;7.39;45.47
78309;BME280;67566;42.022;21.356;2023-11-18T10:53:01;98534.06;;;7.37;46.01
78309;BME280;67566;42.022;21.356;2023-11-18T10:55:38;98525.91;;;7.34;44.82
78309;BME280;67566;42.022;21.356;2023-11-18T10:58:03;98531.41;;;7.62;45.01
78309;BME280;67566;42.022;21.356;2023-11-18T11:00:49;98523.81;;;7.98;44.68
78309;BME280;67566;42.022;21.356;2023-11-18T11:03:15;98532.81;;;8.02;44.27
78309;BME280;67566;42.022;21.356;2023-11-18T11:05:41;98513.59;;;8.10;44.38
78309;BME280;67566;42.022;21.356;2023-11-18T11:08:09;98527.16;;;8.28;43.82
78309;BME280;67566;42.022;21.356;2023-11-18T11:10:42;98506.53;;;8.44;43.68
78309;BME280;67566;42.022;21.356;2023-11-18T11:13:08;98522.19;;;8.40;43.35
78309;BME280;67566;42.022;21.356;2023-11-18T11:15:40;98518.94;;;8.48;44.22
78309;BME280;67566;42.022;21.356;2023-11-18T11:18:08;98511.06;;;8.43;42.04
78309;BME280;67566;42.022;21.356;2023-11-18T11:20:41;98511.31;;;8.61;43.76
78309;BME280;67566;42.022;21.356;2023-11-18T11:31:48;98499.41;;;8.91;41.48
78309;BME280;67566;42.022;21.356;2023-11-18T11:34:18;98502.78;;;8.97;41.56
78309;BME280;67566;42.022;21.356;2023-11-18T11:36:49;98492.94;;;8.97;41.54
78309;BME280;67566;42.022;21.356;2023-11-18T11:39:19;98488.53;;;9.06;41.82
78309;BME280;67566;42.022;21.356;2023-11-18T11:41:53;98482.06;;;9.13;41.23
78309;BME280;67566;42.022;21.356;2023-11-18T11:44:22;98482.16;;;9.21;41.49
78309;BME280;67566;42.022;21.356;2023-11-18T11:46:54;98500.88;;;9.30;41.30
78309;BME280;67566;42.022;21.356;2023-11-18T11:49:22;98504.13;;;9.41;40.95
78309;BME280;67566;42.022;21.356;2023-11-18T11:52:02;98513.38;;;9.57;40.91
78309;BME280;67566;42.022;21.356;2023-11-18T11:54:40;98524.00;;;9.57;40.56
78309;BME280;67566;42.022;21.356;2023-11-18T11:57:10;98530.31;;;9.48;40.84
78309;BME280;67566;42.022;21.356;2023-11-18T12:02:13;98527.06;;;9.37;39.28
78309;BME280;67566;42.022;21.356;2023-11-18T12:04:44;98519.38;;;9.49;38.61
78309;BME280;67566;42.022;21.356;2023-11-18T12:07:10;98521.56;;;9.47;39.03
78309;BME280;67566;42.022;21.356;2023-11-18T12:09:40;98518.91;;;9.47;38.46
78309;BME280;67566;42.022;21.356;2023-11-18T12:12:20;98526.97;;;9.42;38.65
78309;BME280;67566;42.022;21.356;2023-11-18T12:15:04;98528.03;;;9.41;38.90
78309;BME280;67566;42.022;21.356;2023-11-18T12:20:45;98534.06;;;9.60;39.96
78309;BME280;67566;42.022;21.356;2023-11-18T12:23:13;98555.50;;;9.50;39.14
78309;BME280;67566;42.022;21.356;2023-11-18T12:25:40;98527.28;;;9.54;40.03
78309;BME280;67566;42.022;21.356;2023-11-18T12:28:10;98549.00;;;9.42;38.97
78309;BME280;67566;42.022;21.356;2023-11-18T12:33:05;98544.97;;;9.45;39.66
78309;BME280;67566;42.022;21.356;2023-11-18T12:41:35;98555.59;;;9.59;39.09
78309;BME280;67566;42.022;21.356;2023-11-18T12:47:03;98539.28;;;9.66;38.15
78309;BME280;67566;42.022;21.356;2023-11-18T12:49:40;98522.16;;;9.72;38.28
78309;BME280;67566;42.022;21.356;2023-11-18T12:52:08;98530.81;;;9.77;39.12
78309;BME280;67566;42.022;21.356;2023-11-18T12:54:35;98530.59;;;9.74;38.60
78309;BME280;67566;42.022;21.356;2023-11-18T12:57:08;98525.59;;;9.72;38.03
78309;BME280;67566;42.022;21.356;2023-11-18T12:59:35;98510.81;;;9.80;39.76
78309;BME280;67566;42.022;21.356;2023-11-18T13:02:01;98521.81;;;9.87;38.80
78309;BME280;67566;42.022;21.356;2023-11-18T13:04:32;98510.03;;;9.79;38.11
78309;BME280;67566;42.022;21.356;2023-11-18T13:07:05;98527.56;;;9.80;38.80
78309;BME280;67566;42.022;21.356;2023-11-18T13:09:34;98541.06;;;9.70;38.36
78309;BME280;67566;42.022;21.356;2023-11-18T13:12:02;98538.69;;;9.55;37.56
78309;BME280;67566;42.022;21.356;2023-11-18T13:14:35;98533.16;;;9.51;37.74
78309;BME280;67566;42.022;21.356;2023-11-18T13:17:08;98520.28;;;9.58;37.66
78309;BME280;67566;42.022;21.356;2023-11-18T13:19:39;98525.88;;;9.57;37.78
78309;BME280;67566;42.022;21.356;2023-11-18T13:22:11;98537.00;;;9.45;37.83
78309;BME280;67566;42.022;21.356;2023-11-18T13:24:45;98547.91;;;9.43;38.32
78309;BME280;67566;42.022;21.356;2023-11-18T13:27:16;98547.31;;;9.33;37.70
78309;BME280;67566;42.022;21.356;2023-11-18T13:29:48;98526.88;;;9.33;37.20
78309;BME280;67566;42.022;21.356;2023-11-18T13:32:18;98529.53;;;9.33;38.59
78309;BME280;67566;42.022;21.356;2023-11-18T13:34:48;98536.78;;;9.41;38.80
78309;BME280;67566;42.022;21.356;2023-11-18T13:37:14;98540.06;;;9.38;38.38
78309;BME280;67566;42.022;21.356;2023-11-18T13:39:43;98544.66;;;9.47;40.02
78309;BME280;67566;42.022;21.356;2023-11-18T13:42:26;98545.97;;;9.49;38.56